Time;durP1;ratioP1;P1;durP2;ratioP2;P2;SDS_P1;SDS_P2;PMS_P1;PMS_P2;Temp;Humidity;BMP_temperature;BMP_pressure;BME280_temperature;BME280_humidity;BME280_pressure;Samples;Min_cycle;Max_cycle;Signal;HPM_P1;HPM_P2
2023/06/17 00:00:38;;;;;;;9.38;7.80;;;14.80;99.90;;;;;;5065003;28;20040;-77
2023/06/17 00:03:04;;;;;;;12.85;8.35;;;14.80;99.90;;;;;;5047771;28;20048;-78
2023/06/17 00:05:29;;;;;;;13.30;8.18;;;14.70;99.90;;;;;;5051391;28;20032;-78
2023/06/17 00:07:55;;;;;;;15.32;8.10;;;14.70;99.90;;;;;;5032211;28;20029;-78
2023/06/17 00:10:21;;;;;;;13.00;8.68;;;14.60;99.90;;;;;;5059763;28;20040;-78
2023/06/17 00:12:48;;;;;;;10.20;8.15;;;14.60;99.90;;;;;;5047294;28;20314;-78
2023/06/17 00:15:16;;;;;;;10.60;8.73;;;14.60;99.90;;;;;;5087274;28;20501;-78
2023/06/17 00:17:46;;;;;;;11.75;8.52;;;14.50;99.90;;;;;;5069025;28;20044;-78
2023/06/17 00:20:13;;;;;;;16.00;9.68;;;14.50;99.90;;;;;;5038979;28;20036;-78
2023/06/17 00:22:39;;;;;;;10.82;8.45;;;14.60;99.90;;;;;;5051998;28;20044;-78
2023/06/17 00:25:08;;;;;;;14.85;9.23;;;14.60;99.90;;;;;;5070982;28;20502;-78
2023/06/17 00:27:34;;;;;;;13.27;9.23;;;14.60;99.90;;;;;;5089253;27;20025;-78
2023/06/17 00:30:00;;;;;;;12.80;9.05;;;14.60;99.90;;;;;;5037912;28;20605;-78
2023/06/17 00:32:30;;;;;;;11.90;9.25;;;14.60;99.90;;;;;;5070750;28;20533;-78
2023/06/17 00:34:56;;;;;;;12.02;9.43;;;14.50;99.90;;;;;;5082079;28;20036;-78
2023/06/17 00:37:22;;;;;;;12.07;8.95;;;14.50;99.90;;;;;;5072853;28;20029;-78
2023/06/17 00:39:48;;;;;;;14.05;9.38;;;14.50;99.90;;;;;;5039589;28;20132;-78
2023/06/17 00:42:14;;;;;;;15.73;10.05;;;14.50;99.90;;;;;;5062847;28;20465;-78
2023/06/17 00:44:40;;;;;;;16.70;11.05;;;14.50;99.90;;;;;;5055601;28;20151;-78
2023/06/17 00:47:07;;;;;;;14.50;10.52;;;14.50;99.90;;;;;;5065151;28;20043;-78
2023/06/17 00:49:35;;;;;;;14.07;10.10;;;14.50;99.90;;;;;;5053102;28;20036;-78
2023/06/17 00:52:07;;;;;;;13.27;10.15;;;14.50;99.90;;;;;;5048735;28;20561;-78
2023/06/17 00:54:36;;;;;;;18.70;10.63;;;14.40;99.90;;;;;;5061801;28;20072;-78
2023/06/17 00:57:02;;;;;;;11.98;10.48;;;14.40;99.90;;;;;;5097233;27;21366;-78
2023/06/17 00:59:32;;;;;;;14.73;11.18;;;14.40;99.90;;;;;;5062632;28;20048;-78
2023/06/17 01:01:58;;;;;;;15.07;10.57;;;14.40;99.90;;;;;;5044954;28;20046;-78
2023/06/17 01:04:24;;;;;;;14.02;11.88;;;14.50;99.90;;;;;;5049024;28;20036;-78
2023/06/17 01:07:27;;;;;;;18.98;13.52;;;14.50;99.90;;;;;;5071298;28;20044;-78
2023/06/17 01:10:02;;;;;;;25.23;13.75;;;14.60;99.90;;;;;;5067778;28;20047;-78
2023/06/17 01:12:29;;;;;;;19.17;13.70;;;14.60;99.90;;;;;;5065958;28;20033;-78
2023/06/17 01:15:01;;;;;;;21.42;14.45;;;14.60;99.90;;;;;;5053555;28;20115;-78
2023/06/17 01:17:28;;;;;;;21.42;14.15;;;14.60;99.90;;;;;;5051249;28;20533;-78
2023/06/17 01:19:54;;;;;;;19.42;14.57;;;14.60;99.90;;;;;;5069533;28;20056;-78
2023/06/17 01:22:21;;;;;;;19.70;14.95;;;14.70;99.90;;;;;;5055350;28;20048;-78
2023/06/17 01:24:49;;;;;;;24.63;15.32;;;14.80;99.90;;;;;;5069054;28;20040;-78
2023/06/17 01:27:15;;;;;;;26.25;16.05;;;14.70;99.90;;;;;;5051661;28;20028;-78
2023/06/17 01:29:41;;;;;;;21.38;15.73;;;14.80;99.90;;;;;;5072358;28;20043;-78
2023/06/17 01:32:07;;;;;;;20.20;14.95;;;14.80;99.90;;;;;;5068519;28;20036;-78
2023/06/17 01:34:46;;;;;;;23.83;16.23;;;14.80;99.90;;;;;;5103276;27;20036;-78
2023/06/17 01:37:15;;;;;;;24.30;15.30;;;14.80;99.90;;;;;;5054537;28;20056;-78
2023/06/17 01:39:44;;;;;;;23.77;15.73;;;14.80;99.90;;;;;;5100340;27;20029;-78
2023/06/17 01:42:16;;;;;;;23.80;17.33;;;14.80;99.90;;;;;;5062554;28;20043;-78
2023/06/17 01:44:43;;;;;;;26.48;16.70;;;14.80;99.90;;;;;;5053277;28;20053;-79
2023/06/17 01:47:09;;;;;;;23.92;16.15;;;14.80;99.90;;;;;;5051426;28;20162;-78
2023/06/17 01:49:37;;;;;;;30.23;17.52;;;14.80;99.90;;;;;;5071234;28;20492;-78
2023/06/17 01:52:03;;;;;;;25.90;17.27;;;14.80;99.90;;;;;;5053480;28;20037;-78
2023/06/17 01:54:29;;;;;;;26.73;16.52;;;14.80;99.90;;;;;;5102206;27;20041;-78
2023/06/17 01:56:54;;;;;;;28.63;17.52;;;14.80;99.90;;;;;;5056999;28;20029;-78
2023/06/17 01:59:20;;;;;;;28.00;18.23;;;14.80;99.90;;;;;;5055338;28;20036;-78
2023/06/17 02:01:46;;;;;;;29.35;18.15;;;14.70;99.90;;;;;;5066774;28;20524;-78
2023/06/17 02:04:11;;;;;;;31.42;18.25;;;14.70;99.90;;;;;;5071749;28;20093;-78
2023/06/17 02:06:38;;;;;;;25.13;17.52;;;14.70;99.90;;;;;;5083325;28;20138;-79
2023/06/17 02:09:05;;;;;;;26.88;17.40;;;14.70;99.90;;;;;;5071316;28;20066;-78
2023/06/17 02:11:31;;;;;;;26.90;17.80;;;14.70;99.90;;;;;;5053942;28;20516;-78
2023/06/17 02:13:57;;;;;;;24.00;18.33;;;14.80;99.90;;;;;;5070205;28;20041;-78
2023/06/17 02:16:23;;;;;;;29.00;17.35;;;14.70;99.90;;;;;;5048886;28;20037;-78
2023/06/17 02:18:53;;;;;;;24.38;17.60;;;14.70;99.90;;;;;;5067207;28;20048;-78
2023/06/17 02:21:19;;;;;;;29.85;17.35;;;14.70;99.90;;;;;;5062631;28;20060;-78
2023/06/17 02:23:48;;;;;;;28.00;19.08;;;14.70;99.90;;;;;;5050831;28;20513;-78
2023/06/17 02:26:17;;;;;;;24.20;18.20;;;14.70;99.90;;;;;;5063440;28;20608;-78
2023/06/17 02:28:43;;;;;;;27.17;18.13;;;14.70;99.90;;;;;;5068967;28;20040;-78
2023/06/17 02:31:09;;;;;;;25.00;18.08;;;14.70;99.90;;;;;;5049576;28;20033;-78
2023/06/17 02:33:36;;;;;;;28.88;18.95;;;14.60;99.90;;;;;;5049490;28;20080;-78
2023/06/17 02:36:02;;;;;;;26.40;19.70;;;14.60;99.90;;;;;;5050014;28;20752;-78
2023/06/17 02:38:28;;;;;;;24.77;18.73;;;14.60;99.90;;;;;;5066335;28;20040;-78
2023/06/17 02:40:54;;;;;;;32.90;18.98;;;14.60;99.90;;;;;;5096568;27;21522;-78
2023/06/17 02:43:20;;;;;;;29.05;19.45;;;14.60;99.90;;;;;;5064264;28;20036;-78
2023/06/17 02:45:46;;;;;;;30.95;18.75;;;14.60;99.90;;;;;;5046858;28;20060;-78
2023/06/17 02:48:12;;;;;;;30.70;19.90;;;14.60;99.90;;;;;;5065014;28;21215;-78
2023/06/17 02:50:37;;;;;;;28.98;19.33;;;14.60;99.90;;;;;;5099752;27;20154;-78
2023/06/17 02:53:04;;;;;;;28.48;19.67;;;14.60;99.90;;;;;;5052571;28;20115;-78
2023/06/17 02:55:30;;;;;;;28.27;19.45;;;14.60;99.90;;;;;;5082004;28;20052;-78
2023/06/17 02:57:56;;;;;;;30.02;19.35;;;14.60;99.90;;;;;;5049757;28;20047;-78
2023/06/17 03:00:22;;;;;;;29.20;19.90;;;14.70;99.90;;;;;;5065902;28;20040;-78
2023/06/17 03:02:49;;;;;;;32.60;20.73;;;14.60;99.90;;;;;;5047146;28;20402;-80
2023/06/17 03:05:16;;;;;;;34.85;21.65;;;14.60;99.90;;;;;;5063544;28;20037;-80
2023/06/17 03:07:42;;;;;;;24.52;18.90;;;14.60;99.90;;;;;;5053275;28;20025;-80
2023/06/17 03:10:09;;;;;;;30.13;19.95;;;14.70;99.90;;;;;;5049820;28;20047;-78
2023/06/17 03:12:34;;;;;;;34.72;20.65;;;14.70;99.90;;;;;;5061587;28;20067;-78
2023/06/17 03:15:01;;;;;;;29.17;20.05;;;14.70;99.90;;;;;;5065395;28;20653;-78
2023/06/17 03:17:27;;;;;;;29.60;20.23;;;14.70;99.90;;;;;;5048197;28;20032;-78
2023/06/17 03:19:53;;;;;;;30.65;20.85;;;14.60;99.90;;;;;;5048259;28;20048;-78
2023/06/17 03:22:19;;;;;;;27.02;19.98;;;14.60;99.90;;;;;;5045560;28;20056;-78
2023/06/17 03:24:45;;;;;;;33.15;21.05;;;14.60;99.90;;;;;;5067228;28;20393;-78
2023/06/17 03:27:12;;;;;;;28.95;20.23;;;14.60;99.90;;;;;;5047868;28;20041;-78
2023/06/17 03:29:37;;;;;;;34.95;21.25;;;14.60;99.90;;;;;;5060287;28;20501;-78
2023/06/17 03:32:03;;;;;;;29.55;19.65;;;14.60;99.90;;;;;;5063199;28;20071;-78
2023/06/17 03:34:31;;;;;;;29.92;20.95;;;14.60;99.90;;;;;;5049289;28;20048;-78
2023/06/17 03:36:56;;;;;;;30.73;21.08;;;14.60;99.90;;;;;;5085341;28;20452;-78
2023/06/17 03:39:22;;;;;;;26.63;20.35;;;14.60;99.90;;;;;;5030112;28;20124;-78
2023/06/17 03:41:48;;;;;;;29.85;20.83;;;14.60;99.90;;;;;;5048522;28;20076;-79
2023/06/17 03:44:14;;;;;;;32.28;21.80;;;14.60;99.90;;;;;;5061759;28;20051;-78
2023/06/17 03:46:40;;;;;;;32.22;21.20;;;14.60;99.90;;;;;;5048134;28;20040;-78
2023/06/17 03:49:05;;;;;;;32.83;20.55;;;14.60;99.90;;;;;;5045539;28;20036;-78
2023/06/17 03:51:32;;;;;;;30.58;21.38;;;14.60;99.90;;;;;;5065115;28;20608;-78
2023/06/17 03:53:57;;;;;;;33.55;22.85;;;14.60;99.90;;;;;;5046159;28;20033;-79
2023/06/17 03:56:23;;;;;;;32.33;20.98;;;14.60;99.90;;;;;;5065304;28;20619;-80
2023/06/17 03:58:50;;;;;;;30.65;20.95;;;14.70;99.90;;;;;;5049076;28;20047;-80
2023/06/17 04:01:15;;;;;;;29.33;19.20;;;14.70;99.90;;;;;;5076691;28;20076;-78
2023/06/17 04:03:41;;;;;;;31.50;21.60;;;14.70;99.90;;;;;;5033000;28;20473;-78
2023/06/17 04:06:08;;;;;;;32.72;21.98;;;14.70;99.90;;;;;;5042185;28;20444;-79
2023/06/17 04:08:35;;;;;;;30.42;21.92;;;14.70;99.90;;;;;;5048183;28;20497;-78
2023/06/17 04:11:02;;;;;;;29.88;21.63;;;14.70;99.90;;;;;;5089078;27;20455;-78
2023/06/17 04:13:28;;;;;;;32.05;20.73;;;14.70;99.90;;;;;;5032167;28;20166;-78
2023/06/17 04:15:53;;;;;;;30.77;20.98;;;14.70;99.90;;;;;;5078675;28;20079;-78
2023/06/17 04:18:19;;;;;;;31.48;22.42;;;14.70;99.90;;;;;;5063944;28;20091;-78
2023/06/17 04:20:45;;;;;;;33.85;21.38;;;14.70;99.90;;;;;;5055677;28;20044;-79
2023/06/17 04:23:11;;;;;;;29.08;20.48;;;14.70;99.90;;;;;;5087072;27;20479;-79
2023/06/17 04:25:37;;;;;;;30.27;21.38;;;14.80;99.90;;;;;;5050451;28;20037;-78
2023/06/17 04:28:07;;;;;;;26.30;21.13;;;14.80;99.90;;;;;;5039180;28;20044;-78
2023/06/17 04:30:33;;;;;;;28.80;21.27;;;14.80;99.90;;;;;;5061311;28;20037;-78
2023/06/17 04:33:00;;;;;;;31.38;22.45;;;14.80;99.90;;;;;;5084418;28;20090;-78
2023/06/17 04:35:29;;;;;;;31.50;22.25;;;14.80;99.90;;;;;;5045635;28;20069;-78
2023/06/17 04:37:55;;;;;;;29.67;21.30;;;14.80;99.90;;;;;;5079651;28;20037;-78
2023/06/17 04:40:22;;;;;;;30.92;21.33;;;14.80;99.90;;;;;;5052779;28;20047;-79
2023/06/17 04:42:51;;;;;;;32.22;22.13;;;14.80;99.90;;;;;;5089896;27;20040;-79
2023/06/17 04:45:17;;;;;;;31.60;20.95;;;14.80;99.90;;;;;;5061317;28;20064;-78
2023/06/17 04:47:44;;;;;;;29.92;22.42;;;14.80;99.90;;;;;;5057727;28;20646;-79
2023/06/17 04:50:12;;;;;;;32.13;21.25;;;14.80;99.90;;;;;;5042697;28;20112;-79
2023/06/17 04:52:42;;;;;;;30.27;21.38;;;14.80;99.90;;;;;;5053169;28;20048;-79
2023/06/17 04:55:11;;;;;;;32.15;21.45;;;14.70;99.90;;;;;;5047314;28;20041;-78
2023/06/17 04:57:37;;;;;;;28.48;21.58;;;14.70;99.90;;;;;;5036569;28;20417;-78
2023/06/17 05:00:05;;;;;;;30.85;21.77;;;14.80;99.90;;;;;;5065297;28;20036;-79
2023/06/17 05:02:31;;;;;;;31.80;20.80;;;14.80;99.90;;;;;;5047641;28;20049;-79
2023/06/17 05:04:56;;;;;;;28.90;21.05;;;14.80;99.90;;;;;;5046192;28;20044;-79
2023/06/17 05:07:22;;;;;;;32.60;21.98;;;14.80;99.90;;;;;;5038105;28;20094;-79
2023/06/17 05:09:48;;;;;;;28.77;21.38;;;14.80;99.90;;;;;;5080823;28;20047;-79
2023/06/17 05:12:13;;;;;;;29.10;20.25;;;14.80;99.90;;;;;;5048914;28;21920;-79
2023/06/17 05:14:39;;;;;;;32.53;21.98;;;14.80;99.90;;;;;;5019733;28;20615;-79
2023/06/17 05:17:05;;;;;;;38.70;23.75;;;14.80;99.90;;;;;;5046330;28;20036;-79
2023/06/17 05:19:31;;;;;;;31.30;20.52;;;14.80;99.90;;;;;;5036713;28;20120;-79
2023/06/17 05:21:56;;;;;;;28.60;20.42;;;14.80;99.90;;;;;;5063153;28;20053;-79
2023/06/17 05:24:22;;;;;;;27.80;20.45;;;14.90;99.90;;;;;;5070501;28;20107;-79
2023/06/17 05:26:48;;;;;;;30.30;22.02;;;14.90;99.90;;;;;;5048701;28;20064;-79
2023/06/17 05:29:13;;;;;;;27.88;20.75;;;14.90;99.90;;;;;;5081292;28;20032;-79
2023/06/17 05:31:39;;;;;;;30.63;20.35;;;14.90;99.90;;;;;;5036164;28;20036;-79
2023/06/17 05:34:05;;;;;;;27.40;19.85;;;14.90;99.90;;;;;;5044773;28;20049;-79
2023/06/17 05:36:30;;;;;;;31.23;19.33;;;14.90;99.90;;;;;;5037233;28;20048;-80
2023/06/17 05:38:56;;;;;;;27.23;20.48;;;14.90;99.90;;;;;;5049425;28;20072;-80
2023/06/17 05:41:22;;;;;;;30.58;21.23;;;14.80;99.90;;;;;;5085422;28;20557;-79
2023/06/17 05:43:48;;;;;;;30.95;19.88;;;14.90;99.90;;;;;;5046425;28;20533;-79
2023/06/17 05:46:14;;;;;;;29.20;20.60;;;14.90;99.90;;;;;;5077549;28;20029;-79
2023/06/17 05:48:40;;;;;;;24.42;19.25;;;15.00;99.90;;;;;;5046998;28;20036;-79
2023/06/17 05:51:05;;;;;;;26.27;20.63;;;14.90;99.90;;;;;;5060226;28;20511;-79
2023/06/17 05:53:31;;;;;;;28.63;20.55;;;14.90;99.90;;;;;;5048756;28;20112;-80
2023/06/17 05:55:57;;;;;;;27.73;19.67;;;14.90;99.90;;;;;;5085641;28;20045;-80
2023/06/17 05:58:23;;;;;;;31.58;21.52;;;14.90;99.90;;;;;;5066356;28;20046;-79
2023/06/17 06:00:48;;;;;;;27.60;20.70;;;14.90;99.90;;;;;;5070027;28;20033;-79
2023/06/17 06:03:14;;;;;;;25.05;19.80;;;15.00;99.90;;;;;;5070030;28;20109;-79
2023/06/17 06:05:40;;;;;;;27.52;20.10;;;15.00;99.90;;;;;;5093469;27;20032;-79
2023/06/17 06:08:06;;;;;;;28.00;20.40;;;15.00;99.90;;;;;;5037499;28;20717;-79
2023/06/17 06:10:32;;;;;;;27.70;19.35;;;15.10;99.90;;;;;;5066893;28;20072;-79
2023/06/17 06:12:59;;;;;;;28.88;20.77;;;15.10;99.90;;;;;;5036309;28;20041;-79
2023/06/17 06:15:25;;;;;;;27.75;19.63;;;15.20;99.90;;;;;;5093085;28;20683;-80
2023/06/17 06:17:51;;;;;;;26.42;19.88;;;15.20;99.90;;;;;;5069847;28;20079;-80
2023/06/17 06:20:17;;;;;;;26.67;19.73;;;15.20;99.90;;;;;;5055763;28;20078;-79
2023/06/17 06:22:43;;;;;;;28.65;19.52;;;15.20;99.90;;;;;;5053426;28;20643;-79
2023/06/17 06:25:10;;;;;;;27.98;19.75;;;15.20;99.90;;;;;;5061278;28;20049;-79
2023/06/17 06:27:35;;;;;;;29.13;21.30;;;15.20;99.90;;;;;;5086889;28;20037;-79
2023/06/17 06:30:01;;;;;;;30.90;20.45;;;15.30;99.90;;;;;;5111512;28;20016;-79
2023/06/17 06:32:27;;;;;;;24.60;18.95;;;15.30;99.90;;;;;;5096150;28;20040;-79
2023/06/17 06:34:52;;;;;;;29.33;19.77;;;15.30;99.90;;;;;;5074817;28;20060;-79
2023/06/17 06:37:18;;;;;;;28.08;20.15;;;15.40;99.90;;;;;;5075394;28;20112;-79
2023/06/17 06:39:44;;;;;;;27.27;19.50;;;15.40;99.90;;;;;;5077367;28;20045;-80
2023/06/17 06:42:11;;;;;;;24.17;17.95;;;15.40;99.90;;;;;;5070570;28;20043;-80
2023/06/17 06:44:37;;;;;;;28.27;18.65;;;15.50;99.90;;;;;;5051700;28;20045;-81
2023/06/17 06:47:02;;;;;;;25.98;19.98;;;15.50;99.90;;;;;;5078544;28;20119;-80
2023/06/17 06:49:28;;;;;;;28.98;20.00;;;15.50;99.90;;;;;;5056374;28;20036;-81
2023/06/17 06:51:54;;;;;;;27.67;19.77;;;15.60;99.90;;;;;;5059191;28;20067;-80
2023/06/17 06:54:20;;;;;;;27.08;20.15;;;15.50;99.90;;;;;;5071027;28;20041;-81
2023/06/17 06:56:45;;;;;;;27.95;19.30;;;15.60;99.90;;;;;;5067648;28;20048;-80
2023/06/17 06:59:11;;;;;;;28.73;21.35;;;15.60;99.90;;;;;;5038360;28;20471;-81
2023/06/17 07:01:37;;;;;;;27.70;20.33;;;15.70;99.90;;;;;;5072219;28;20057;-81
2023/06/17 07:04:03;;;;;;;31.70;21.63;;;15.60;99.90;;;;;;5054425;28;20052;-81
2023/06/17 07:06:30;;;;;;;26.30;19.38;;;15.70;99.90;;;;;;5041552;28;20486;-81
2023/06/17 07:08:55;;;;;;;23.27;18.73;;;15.80;99.90;;;;;;5073465;28;20045;-81
2023/06/17 07:11:21;;;;;;;27.17;18.45;;;15.80;99.90;;;;;;5068131;28;20060;-81
2023/06/17 07:13:47;;;;;;;24.58;19.13;;;15.80;99.90;;;;;;5088907;28;20101;-81
2023/06/17 07:16:12;;;;;;;25.88;18.95;;;15.90;99.90;;;;;;5070936;28;20048;-81
2023/06/17 07:18:38;;;;;;;26.98;19.38;;;15.90;99.90;;;;;;5077406;28;20544;-80
2023/06/17 07:21:04;;;;;;;27.15;20.17;;;16.00;99.90;;;;;;5052752;28;20509;-81
2023/06/17 07:23:29;;;;;;;21.92;18.02;;;16.10;99.90;;;;;;5088811;28;20040;-82
2023/06/17 07:25:55;;;;;;;27.40;18.63;;;16.10;99.90;;;;;;5085811;27;20032;-81
2023/06/17 07:28:21;;;;;;;25.02;18.38;;;16.20;99.90;;;;;;5038502;28;20033;-81
2023/06/17 07:30:48;;;;;;;28.63;17.73;;;16.30;99.90;;;;;;5068024;28;20056;-82
2023/06/17 07:33:14;;;;;;;25.35;18.25;;;16.30;99.90;;;;;;5089241;27;20083;-82
2023/06/17 07:35:40;;;;;;;23.55;17.58;;;16.40;99.90;;;;;;5048071;28;20083;-82
2023/06/17 07:38:05;;;;;;;28.85;18.67;;;16.50;99.90;;;;;;5079981;28;20072;-81
2023/06/17 07:40:31;;;;;;;30.08;18.27;;;16.50;99.90;;;;;;5059069;28;20503;-81
2023/06/17 07:42:57;;;;;;;23.20;18.20;;;16.60;99.90;;;;;;5064218;28;20036;-81
2023/06/17 07:45:23;;;;;;;29.83;17.83;;;16.70;99.90;;;;;;5044512;28;20036;-81
2023/06/17 07:47:48;;;;;;;24.38;16.52;;;16.80;99.90;;;;;;5060561;28;20043;-80
2023/06/17 07:50:14;;;;;;;24.27;18.42;;;16.80;99.90;;;;;;5058665;28;20485;-81
2023/06/17 07:52:40;;;;;;;22.85;17.63;;;17.00;99.90;;;;;;5064933;28;20104;-82
2023/06/17 07:55:08;;;;;;;25.10;16.50;;;17.10;99.90;;;;;;5051623;28;20033;-83
2023/06/17 07:57:34;;;;;;;22.85;18.10;;;17.50;99.90;;;;;;5051511;28;20032;-82
2023/06/17 08:00:00;;;;;;;26.67;16.88;;;17.70;99.90;;;;;;5049511;28;20043;-83
2023/06/17 08:02:26;;;;;;;27.48;17.73;;;17.90;99.90;;;;;;5100336;27;20476;-82
2023/06/17 08:04:52;;;;;;;24.35;16.73;;;17.90;99.90;;;;;;5063322;28;20041;-82
2023/06/17 08:07:20;;;;;;;22.52;17.30;;;18.00;99.90;;;;;;5064942;28;20037;-81
2023/06/17 08:09:46;;;;;;;32.53;18.20;;;18.10;99.90;;;;;;5053630;28;20107;-82
2023/06/17 08:12:11;;;;;;;22.45;15.68;;;18.10;99.90;;;;;;5030496;28;20490;-81
2023/06/17 08:14:37;;;;;;;22.95;16.55;;;18.20;99.90;;;;;;5047807;28;20528;-80
2023/06/17 08:17:03;;;;;;;20.00;16.30;;;18.10;99.90;;;;;;5031897;28;20053;-80
2023/06/17 08:19:28;;;;;;;23.50;17.17;;;18.20;99.90;;;;;;5030509;28;20115;-81
2023/06/17 08:21:54;;;;;;;21.33;17.98;;;18.20;99.90;;;;;;5062945;28;20040;-81
2023/06/17 08:24:25;;;;;;;23.83;15.68;;;18.30;99.90;;;;;;5081665;28;20400;-81
2023/06/17 08:26:52;;;;;;;21.40;15.75;;;18.50;99.90;;;;;;5047293;28;20040;-81
2023/06/17 08:29:18;;;;;;;24.50;15.57;;;18.80;99.90;;;;;;5055887;28;20079;-81
2023/06/17 08:31:46;;;;;;;19.42;15.43;;;19.00;99.90;;;;;;5031837;28;20391;-80
2023/06/17 08:34:13;;;;;;;20.65;16.73;;;18.90;99.90;;;;;;5062190;28;20544;-80
2023/06/17 08:36:41;;;;;;;22.83;16.52;;;18.90;99.90;;;;;;5066316;28;20501;-79
2023/06/17 08:39:08;;;;;;;22.05;16.08;;;18.70;99.90;;;;;;5055245;28;20106;-79
2023/06/17 08:41:39;;;;;;;24.92;17.05;;;18.80;99.90;;;;;;5039282;28;20053;-80
2023/06/17 08:44:06;;;;;;;22.90;14.80;;;19.00;99.90;;;;;;5067726;28;20064;-81
2023/06/17 08:46:32;;;;;;;20.10;15.95;;;19.30;99.90;;;;;;5033897;28;20485;-80
2023/06/17 08:48:59;;;;;;;21.58;14.93;;;19.50;99.90;;;;;;5046741;28;20041;-80
2023/06/17 08:51:25;;;;;;;24.23;14.27;;;19.70;99.90;;;;;;5063811;28;20502;-80
2023/06/17 08:53:52;;;;;;;19.48;13.75;;;19.90;99.90;;;;;;5055766;28;20056;-72
2023/06/17 08:56:18;;;;;;;18.40;14.60;;;20.20;99.90;;;;;;5062088;28;20104;-72
2023/06/17 08:58:44;;;;;;;18.77;14.75;;;20.40;99.90;;;;;;5062858;28;20132;-71
2023/06/17 09:01:12;;;;;;;22.08;15.18;;;20.50;99.90;;;;;;5056587;28;20388;-72
2023/06/17 09:03:41;;;;;;;19.50;14.93;;;20.60;99.90;;;;;;5049846;28;20463;-72
2023/06/17 09:06:23;;;;;;;20.95;15.15;;;20.60;99.90;;;;;;5087539;28;20048;-71
2023/06/17 09:08:51;;;;;;;26.10;13.57;;;20.50;99.90;;;;;;5090608;28;20032;-72
2023/06/17 09:11:20;;;;;;;18.15;14.80;;;20.60;99.90;;;;;;5055417;28;20040;-71
2023/06/17 09:13:50;;;;;;;17.98;13.43;;;20.70;99.90;;;;;;5062129;28;20059;-72
2023/06/17 09:16:36;;;;;;;16.52;13.68;;;20.90;99.90;;;;;;5030884;28;20053;-72
2023/06/17 09:19:13;;;;;;;18.80;13.82;;;21.10;99.90;;;;;;5060558;28;20084;-72
2023/06/17 09:21:38;;;;;;;18.73;13.18;;;21.20;99.90;;;;;;5040054;28;20033;-72
2023/06/17 09:24:11;;;;;;;21.65;12.23;;;21.30;99.90;;;;;;5072008;28;20735;-72
2023/06/17 09:26:41;;;;;;;20.67;12.95;;;21.50;99.90;;;;;;5053232;28;20029;-72
2023/06/17 09:29:12;;;;;;;17.50;14.15;;;21.60;99.90;;;;;;5052361;28;20045;-72
2023/06/17 09:31:55;;;;;;;17.63;13.05;;;21.70;99.90;;;;;;5075748;28;20401;-72
2023/06/17 09:34:21;;;;;;;17.30;12.57;;;21.90;99.90;;;;;;5051392;28;20064;-71
2023/06/17 09:36:54;;;;;;;15.88;12.55;;;22.00;99.90;;;;;;5074765;28;20127;-72
2023/06/17 09:39:29;;;;;;;15.18;11.20;;;22.10;99.90;;;;;;5073642;28;20490;-71
2023/06/17 09:41:56;;;;;;;16.15;11.90;;;22.30;99.90;;;;;;5062041;28;20107;-71
2023/06/17 09:44:23;;;;;;;23.13;12.30;;;22.50;99.90;;;;;;5069871;28;20401;-71
2023/06/17 09:46:49;;;;;;;16.25;11.93;;;22.60;99.90;;;;;;5065123;28;20048;-70
2023/06/17 09:49:23;;;;;;;13.40;12.00;;;22.60;99.90;;;;;;5048670;28;20132;-71
2023/06/17 09:51:51;;;;;;;15.90;11.85;;;22.70;99.90;;;;;;5073944;28;20051;-71
2023/06/17 09:54:21;;;;;;;15.05;11.95;;;22.80;99.90;;;;;;5058292;28;20124;-71
2023/06/17 09:56:48;;;;;;;14.85;11.27;;;22.70;99.90;;;;;;5063028;28;20994;-71
2023/06/17 09:59:15;;;;;;;15.40;11.15;;;22.90;99.90;;;;;;5060201;28;20094;-71
2023/06/17 10:01:40;;;;;;;16.20;12.68;;;23.00;99.90;;;;;;5042003;28;20060;-71
2023/06/17 10:04:07;;;;;;;15.07;11.50;;;23.20;99.90;;;;;;5065563;28;20052;-70
2023/06/17 10:06:39;;;;;;;16.17;11.60;;;23.20;99.90;;;;;;5054536;28;20044;-70
2023/06/17 10:09:07;;;;;;;20.80;11.20;;;23.20;99.90;;;;;;5055931;28;20397;-70
2023/06/17 10:11:41;;;;;;;18.65;11.73;;;23.40;99.90;;;;;;5037171;28;20094;-70
2023/06/17 10:14:10;;;;;;;18.55;10.82;;;23.40;99.10;;;;;;5055739;28;20084;-70
2023/06/17 10:16:41;;;;;;;16.92;10.88;;;23.60;99.70;;;;;;5057355;28;20048;-70
2023/06/17 10:19:10;;;;;;;13.25;10.35;;;23.60;99.00;;;;;;5045162;28;20150;-70
2023/06/17 10:21:42;;;;;;;13.77;9.55;;;23.70;99.00;;;;;;5074201;28;20040;-70
2023/06/17 10:24:08;;;;;;;13.88;10.35;;;24.00;98.70;;;;;;5076029;28;20090;-70
2023/06/17 10:26:34;;;;;;;15.95;10.35;;;24.10;98.30;;;;;;5088608;28;20121;-70
2023/06/17 10:29:08;;;;;;;19.65;10.10;;;24.30;97.90;;;;;;5072178;28;20115;-74
2023/06/17 10:31:39;;;;;;;11.38;8.88;;;24.30;97.50;;;;;;5071719;28;20044;-74
2023/06/17 10:34:05;;;;;;;12.05;10.10;;;24.40;96.60;;;;;;5069918;28;20036;-74
2023/06/17 10:36:33;;;;;;;15.65;11.20;;;24.50;96.40;;;;;;5050711;28;20041;-74
2023/06/17 10:39:12;;;;;;;13.13;9.57;;;24.60;96.30;;;;;;5053059;28;20052;-74
2023/06/17 10:41:38;;;;;;;12.77;9.65;;;24.70;95.80;;;;;;5065751;28;20075;-73
2023/06/17 10:44:26;;;;;;;10.55;8.88;;;25.00;96.30;;;;;;5055073;28;20400;-81
2023/06/17 10:46:52;;;;;;;13.27;9.25;;;25.20;95.10;;;;;;5060400;28;20038;-81
2023/06/17 10:49:18;;;;;;;12.75;8.80;;;25.20;94.80;;;;;;5051312;28;20037;-82
2023/06/17 10:51:48;;;;;;;10.63;8.60;;;25.20;94.20;;;;;;5036897;28;20162;-82
2023/06/17 10:54:14;;;;;;;10.23;7.80;;;25.40;93.80;;;;;;5084965;28;20045;-81
2023/06/17 10:56:53;;;;;;;10.65;8.85;;;25.50;94.10;;;;;;5066987;28;20046;-83
2023/06/17 10:59:25;;;;;;;10.52;8.10;;;25.60;93.00;;;;;;5068351;28;20071;-82
2023/06/17 11:01:52;;;;;;;18.33;8.25;;;25.70;92.50;;;;;;5088860;28;20141;-82
2023/06/17 11:04:18;;;;;;;8.55;7.68;;;25.70;91.90;;;;;;5103430;28;20048;-83
2023/06/17 11:06:47;;;;;;;11.45;7.40;;;25.90;92.60;;;;;;5060149;28;20127;-83
2023/06/17 11:09:13;;;;;;;8.77;7.03;;;26.00;92.10;;;;;;5104167;28;20056;-83
2023/06/17 11:11:39;;;;;;;10.18;7.70;;;26.00;91.70;;;;;;5058880;28;20040;-83
2023/06/17 11:14:05;;;;;;;10.57;7.72;;;26.10;91.60;;;;;;5071092;28;20040;-83
2023/06/17 11:16:32;;;;;;;14.80;7.68;;;26.10;91.50;;;;;;5088951;28;20067;-83
2023/06/17 11:18:59;;;;;;;8.35;7.38;;;26.20;91.10;;;;;;5086460;28;20040;-82
2023/06/17 11:21:25;;;;;;;11.40;7.55;;;26.20;90.80;;;;;;5088196;28;20037;-82
2023/06/17 11:23:52;;;;;;;12.10;8.20;;;26.30;90.90;;;;;;5054639;28;20534;-82
2023/06/17 11:26:18;;;;;;;12.10;7.68;;;26.40;90.60;;;;;;5069462;28;20049;-82
2023/06/17 11:28:45;;;;;;;15.80;7.85;;;26.40;90.10;;;;;;5067768;28;20044;-83
2023/06/17 11:31:10;;;;;;;10.13;7.53;;;26.70;90.40;;;;;;5077672;28;20039;-82
2023/06/17 11:33:36;;;;;;;12.18;7.50;;;26.70;90.00;;;;;;5070796;28;20511;-82
2023/06/17 11:36:03;;;;;;;12.18;8.15;;;26.80;89.30;;;;;;5071064;28;20036;-82
2023/06/17 11:38:30;;;;;;;11.05;7.97;;;26.90;89.60;;;;;;5105264;28;20438;-83
2023/06/17 11:40:57;;;;;;;9.82;7.32;;;26.80;89.10;;;;;;5074215;28;20606;-81
2023/06/17 11:43:26;;;;;;;12.63;7.90;;;26.80;88.80;;;;;;5086533;28;20040;-82
2023/06/17 11:45:58;;;;;;;20.02;7.65;;;26.80;87.70;;;;;;5061149;28;20115;-83
2023/06/17 11:48:37;;;;;;;10.40;7.32;;;26.80;87.70;;;;;;5088542;28;20635;-82
2023/06/17 11:51:02;;;;;;;12.70;7.70;;;26.80;88.20;;;;;;5089692;28;20036;-82
2023/06/17 11:53:38;;;;;;;9.85;7.68;;;26.80;87.90;;;;;;5088019;28;20532;-82
2023/06/17 11:56:06;;;;;;;9.77;7.68;;;26.90;87.20;;;;;;5081687;28;20039;-82
2023/06/17 11:58:38;;;;;;;9.63;7.90;;;27.00;87.70;;;;;;5062309;28;20150;-82
2023/06/17 12:01:04;;;;;;;9.63;7.07;;;27.10;87.50;;;;;;5070942;28;20036;-82
2023/06/17 12:03:30;;;;;;;12.70;7.35;;;27.10;87.10;;;;;;5104459;28;20529;-82
2023/06/17 12:05:59;;;;;;;10.07;7.00;;;27.20;87.20;;;;;;5052741;28;20083;-82
2023/06/17 12:08:34;;;;;;;14.07;7.18;;;27.40;86.70;;;;;;5053208;28;20481;-83
2023/06/17 12:11:22;;;;;;;8.60;6.78;;;27.50;85.90;;;;;;5078338;28;20504;-82
2023/06/17 12:13:50;;;;;;;10.95;7.28;;;27.60;85.40;;;;;;5069957;28;20044;-83
2023/06/17 12:16:33;;;;;;;51.90;10.40;;;27.70;85.20;;;;;;5069765;28;20045;-83
2023/06/17 12:19:00;;;;;;;8.75;6.85;;;27.80;84.30;;;;;;5069818;28;20078;-82
2023/06/17 12:21:27;;;;;;;11.20;6.80;;;27.90;84.30;;;;;;5053012;28;20040;-82
2023/06/17 12:23:54;;;;;;;10.63;6.80;;;28.00;84.40;;;;;;5067829;28;20032;-82
2023/06/17 12:26:21;;;;;;;9.52;6.40;;;28.10;83.70;;;;;;5053070;28;20450;-82
2023/06/17 12:28:46;;;;;;;17.65;7.78;;;28.20;84.20;;;;;;5103556;28;20119;-84